Flight Track Log - Related Links

Times and Time Zones

All times are in EDT time to prevent confusion due to time zone crossing. See the N47551 flight status page for this flight to view local times or setup timezone preferences in your user account.

Time Position Orientation Groundspeed Altitude Reporting Facility
EDT Latitude Longitude Course Direction KTS MPH feet Rate Location/Type
Thu 12:53:47 PM 37.6442 -82.5419 119° Southeast 121 139 3,400  Level Indianapolis Center
Thu 12:54:47 PM 37.6272 -82.5028 128° Southeast 121 139 3,700 400 Climbing Indianapolis Center
Thu 12:55:47 PM 37.6081 -82.4717 141° Southeast 121 139 4,200 400 Climbing Indianapolis Center
Thu 12:56:47 PM 37.5831 -82.4458 136° Southeast 116 133 4,500 350 Climbing Indianapolis Center
Thu 12:57:47 PM 37.5597 -82.4172 131° Southeast 122 140 4,900 450 Climbing Indianapolis Center
Thu 12:58:47 PM 37.5386 -82.3861 105° East 122 140 5,400 450 Climbing Indianapolis Center
Thu 12:59:47 PM 37.5297 -82.3444 111° Southeast 109 125 5,800 400 Climbing Indianapolis Center
Thu 01:00:47 PM 37.5189 -82.3081 114° Southeast 109 125 6,200 450 Climbing Indianapolis Center
Thu 01:01:47 PM 37.5061 -82.2717 146° Southeast 114 131 6,700 450 Climbing Indianapolis Center
Thu 01:02:47 PM 37.4786 -82.2483 154° Southeast 109 125 7,100 400 Climbing Indianapolis Center
Thu 01:03:47 PM 37.4492 -82.2306 149° Southeast 121 139 7,500 400 Climbing Indianapolis Center
Thu 01:04:47 PM 37.4219 -82.2103 151° Southeast 116 133 7,900 450 Climbing Indianapolis Center
Thu 01:05:47 PM 37.3925 -82.1897 158° South 116 133 8,400 400 Climbing Indianapolis Center
Thu 01:06:47 PM 37.3631 -82.1747 130° Southeast 111 128 8,700 500 Climbing Indianapolis Center
Thu 01:07:47 PM 37.3419 -82.1436 136° Southeast 111 128 9,400 500 Climbing Indianapolis Center
Thu 01:08:47 PM 37.3186 -82.1156 136° Southeast 121 139 9,700 350 Climbing Indianapolis Center
Thu 01:09:47 PM 37.2931 -82.0847 133° Southeast 121 139 10,100 400 Climbing Indianapolis Center
Thu 01:10:47 PM 37.2697 -82.0536 136° Southeast 121 139 10,500 400 Climbing Indianapolis Center
Thu 01:11:47 PM 37.2444 -82.0231 136° Southeast 121 139 10,900 200 Climbing Indianapolis Center
Thu 01:12:47 PM 37.2189 -81.9922 138° Southeast 121 139 10,900 100 Level Indianapolis Center
Thu 01:13:47 PM 37.1936 -81.9639 163° South 121 139 11,100 32 Climbing Indianapolis Center
Thu 01:15:52 PM 37.1247 -81.9381 167° South 122 140 11,000  Descending Atlanta Center
Thu 01:16:52 PM 37.0931 -81.9286 171° South 127 146 11,100  Climbing Atlanta Center
Thu 01:17:53 PM 37.0575 -81.9217 174° South 127 146 11,000 -50 Descending Atlanta Center
Thu 01:18:52 PM 37.0242 -81.9172 175° South 122 140 11,000 -50 Level Atlanta Center
Thu 01:19:52 PM 36.9886 -81.9131 168° South 127 146 10,900 -50 Descending Atlanta Center
Thu 01:20:53 PM 36.9531 -81.9036 178° South 127 146 10,900 50 Level Atlanta Center
Thu 01:21:52 PM 36.9197 -81.9019 171° South 121 139 11,000  Climbing Atlanta Center
Thu 01:22:52 PM 36.8842 -81.8953 167° South 121 139 10,900 -50 Descending Atlanta Center
Thu 01:23:52 PM 36.8506 -81.8858 174° South 121 139 10,900  Level Atlanta Center
Thu 01:24:52 PM 36.8150 -81.8814 174° South 121 139 10,900  Level Atlanta Center
Thu 01:25:53 PM 36.7836 -81.8772 167° South 121 139 10,900  Level Atlanta Center
Thu 01:26:52 PM 36.7503 -81.8678 178° South 121 139 10,900  Level Atlanta Center
Thu 01:27:53 PM 36.7147 -81.8661 171° South 121 139 10,900  Level Atlanta Center
Thu 01:28:52 PM 36.6814 -81.8592 172° South 121 139 10,900  Level Atlanta Center
Thu 01:29:53 PM 36.6456 -81.8525 173° South 121 139 10,900  Level Atlanta Center
Thu 01:30:53 PM 36.6144 -81.8481 171° South 121 139 10,900  Level Atlanta Center
Thu 01:31:52 PM 36.5808 -81.8414 174° South 121 139 10,900  Level Atlanta Center
Thu 01:32:52 PM 36.5494 -81.8369 170° South 121 139 10,900 50 Level Atlanta Center
Thu 01:33:53 PM 36.5181 -81.8300 170° South 121 139 11,000  Climbing Atlanta Center
Thu 01:34:53 PM 36.4867 -81.8233 172° South 121 139 10,900 -50 Descending Atlanta Center
Thu 01:35:52 PM 36.4489 -81.8164 167° South 121 139 10,900  Level Atlanta Center
Thu 01:36:53 PM 36.4175 -81.8072 154° Southeast 121 139 10,900 50 Level Atlanta Center
Thu 01:37:52 PM 36.3881 -81.7897 152° Southeast 121 139 11,000  Climbing Atlanta Center
Thu 01:38:52 PM 36.3586 -81.7700 141° Southeast 121 139 10,900  Descending Atlanta Center
Thu 01:39:52 PM 36.3308 -81.7425 147° Southeast 127 146 11,000 50 Climbing Atlanta Center
Thu 01:40:52 PM 36.3033 -81.7200 126° Southeast 127 146 11,000 -50 Level Atlanta Center
Thu 01:41:52 PM 36.2839 -81.6872 125° Southeast 122 140 10,900 -50 Descending Atlanta Center
Thu 01:42:53 PM 36.2622 -81.6492 122° Southeast 130 150 10,900 50 Level Atlanta Center
Thu 01:43:52 PM 36.2428 -81.6111 124° Southeast 130 150 11,000 101 Climbing Atlanta Center
Thu 01:44:52 PM 36.2233 -81.5756 120° Southeast 130 150 11,100 -50 Climbing Atlanta Center
Thu 01:45:52 PM 36.2036 -81.5325 123° Southeast 141 162 10,900 -100 Descending Atlanta Center
Thu 01:46:52 PM 36.1819 -81.4919 121° Southeast 141 162 10,900 25 Level Atlanta Center
Thu 01:49:52 PM 36.1189 -81.3631 123° Southeast 141 162 11,000 25 Climbing Atlanta Center
Thu 01:50:53 PM 36.0992 -81.3250 120° Southeast 141 162 11,000  Level Atlanta Center
Thu 01:51:52 PM 36.0794 -81.2819 121° Southeast 141 162 11,000 -50 Level Atlanta Center
Thu 01:52:52 PM 36.0597 -81.2417 124° Southeast 136 157 10,900  Descending Atlanta Center
Thu 01:53:52 PM 36.0381 -81.2014 121° Southeast 136 157 11,000 50 Climbing Atlanta Center
Thu 01:54:52 PM 36.0183 -81.1608 121° Southeast 136 157 11,000  Level Atlanta Center
Thu 01:55:52 PM 35.9986 -81.1206 124° Southeast 136 157 11,000 -50 Level Atlanta Center
Thu 01:56:52 PM 35.9767 -81.0803 120° Southeast 136 157 10,900  Descending Atlanta Center
Thu 01:57:52 PM 35.9592 -81.0425 121° Southeast 136 157 11,000  Climbing Atlanta Center
Thu 01:58:52 PM 35.9394 -81.0022 122° Southeast 136 157 10,900 -50 Descending Atlanta Center
Thu 01:59:52 PM 35.9194 -80.9619 124° Southeast 136 157 10,900 50 Level Atlanta Center
Thu 02:00:53 PM 35.8978 -80.9217 124° Southeast 136 157 11,000  Climbing Atlanta Center
Thu 02:01:52 PM 35.8758 -80.8814 121° Southeast 136 157 10,900 -50 Descending Atlanta Center
Thu 02:02:52 PM 35.8539 -80.8361 122° Southeast 141 162 10,900  Level Atlanta Center
Thu 02:03:52 PM 35.8339 -80.7961 124° Southeast 141 162 10,900 50 Level Atlanta Center
Thu 02:04:52 PM 35.8119 -80.7558 121° Southeast 141 162 11,000 50 Climbing Atlanta Center
Thu 02:05:52 PM 35.7900 -80.7108 121° Southeast 141 162 11,000  Level Atlanta Center
Thu 02:06:52 PM 35.7700 -80.6706 121° Southeast 141 162 11,000  Level Atlanta Center
Thu 02:07:52 PM 35.7503 -80.6306 124° Southeast 141 162 11,000  Level Atlanta Center
Thu 02:08:52 PM 35.7283 -80.5906 123° Southeast 141 162 11,000  Level Atlanta Center
Thu 02:09:52 PM 35.7083 -80.5528 120° Southeast 141 162 11,000  Level Atlanta Center
Thu 02:10:52 PM 35.6883 -80.5103 124° Southeast 141 162 11,000  Level Atlanta Center
Thu 02:11:52 PM 35.6664 -80.4703 123° Southeast 141 162 11,000  Level Atlanta Center
Thu 02:12:52 PM 35.6442 -80.4278 121° Southeast 141 162 11,000  Level Atlanta Center
Thu 02:13:52 PM 35.6244 -80.3878 121° Southeast 141 162 11,000  Level Atlanta Center
Thu 02:14:52 PM 35.6022 -80.3428 121° Southeast 141 162 11,000  Level Atlanta Center
Thu 02:22:15 PM 35.4629 -80.0596 116° Southeast  Level FlightAware Approximate
Thu 02:23:15 PM 35.4466 -80.0190 116° Southeast  Level FlightAware Approximate
Thu 02:24:15 PM 35.4304 -79.9785 116° Southeast  Level FlightAware Approximate
Thu 02:25:15 PM 35.4141 -79.9380 116° Southeast  Level FlightAware Approximate
Thu 02:26:15 PM 35.3979 -79.8975 116° Southeast  Level FlightAware Approximate
Thu 02:27:15 PM 35.3816 -79.8571 164° South  Level FlightAware Approximate
Thu 02:28:15 PM 35.3474 -79.8452 112° Southeast  Level FlightAware Approximate
Thu 02:29:15 PM 35.3336 -79.8034 112° Southeast  Level FlightAware Approximate

Login

Don't have an account? Register now (free) for customized features, flight alerts, and more!